createdAt,value
2019-04-07T00:08:03.308Z,77.39
2019-04-07T00:23:36.414Z,78.85
2019-04-07T00:39:09.481Z,79.90
2019-04-07T00:54:43.343Z,83.45
2019-04-07T01:10:16.605Z,84.53
2019-04-07T01:25:50.068Z,83.95
2019-04-07T01:41:27.516Z,85.01
2019-04-07T01:57:03.512Z,84.39
2019-04-07T02:12:43.641Z,87.42
2019-04-07T02:28:32.999Z,89.15
2019-04-07T02:44:10.846Z,87.39
2019-04-07T03:16:00.905Z,89.41
2019-04-07T03:31:43.391Z,90.96
2019-04-07T03:47:23.386Z,89.63
2019-04-07T04:03:00.393Z,91.68
2019-04-07T04:18:33.414Z,91.12
2019-04-07T04:34:06.720Z,89.58
2019-04-07T04:49:40.365Z,88.64
2019-04-07T05:05:13.940Z,88.19
2019-04-07T05:20:47.695Z,85.92
2019-04-07T05:36:21.419Z,82.21
2019-04-07T05:51:54.735Z,79.00
2019-04-07T06:07:30.640Z,80.24
2019-04-07T06:23:02.796Z,78.42
2019-04-07T06:38:38.911Z,74.04
2019-04-07T06:54:21.630Z,71.66
2019-04-07T07:10:10.643Z,68.50
2019-04-07T07:25:43.633Z,64.84
2019-04-07T07:41:19.754Z,61.26
2019-04-07T07:56:53.034Z,57.42
2019-04-07T08:12:27.100Z,61.30
2019-04-07T08:28:02.199Z,59.43
2019-04-07T08:43:35.177Z,56.31
2019-04-07T08:59:11.268Z,53.97
2019-04-07T09:14:43.962Z,49.55
2019-04-07T09:30:26.221Z,50.56
2019-04-07T09:46:14.764Z,51.19
2019-04-07T10:01:52.651Z,53.07
2019-04-07T10:17:32.948Z,52.91
2019-04-07T10:33:19.196Z,56.22
2019-04-07T10:49:04.452Z,56.91
2019-04-07T11:04:43.998Z,56.69
2019-04-07T11:20:21.483Z,57.25
2019-04-07T11:36:02.336Z,57.55
2019-04-07T11:51:46.828Z,55.62
2019-04-07T12:07:26.279Z,55.94
2019-04-07T12:23:06.326Z,57.23
2019-04-07T12:38:56.348Z,58.02
2019-04-07T12:54:39.620Z,57.38
2019-04-07T13:10:14.367Z,58.44
2019-04-07T13:25:54.298Z,57.38
2019-04-07T13:41:40.793Z,58.10
2019-04-07T13:57:23.224Z,59.66
2019-04-07T14:12:57.719Z,60.07
2019-04-07T14:28:36.006Z,60.21
2019-04-07T14:44:12.834Z,60.97
2019-04-07T14:59:48.472Z,61.46
2019-04-07T15:15:22.551Z,63.33
2019-04-07T15:30:56.809Z,64.25
2019-04-07T15:46:30.851Z,65.57
2019-04-07T16:02:04.428Z,66.83
2019-04-07T16:17:38.411Z,67.91
2019-04-07T16:33:11.549Z,68.89
2019-04-07T16:48:45.084Z,70.82
2019-04-07T17:04:20.102Z,71.62
2019-04-07T17:19:58.207Z,73.20
2019-04-07T17:35:31.001Z,74.74
2019-04-07T18:07:25.479Z,77.99
2019-04-07T18:23:03.485Z,78.11
2019-04-07T18:38:45.013Z,78.91
2019-04-07T18:54:22.725Z,79.49
2019-04-07T19:10:09.600Z,80.23
2019-04-07T19:25:41.936Z,81.34
2019-04-07T19:41:20.202Z,81.63
2019-04-07T19:56:56.976Z,81.62
2019-04-07T20:12:37.962Z,81.19
2019-04-07T20:28:15.278Z,82.89
2019-04-07T20:43:53.831Z,82.91
2019-04-07T20:59:31.752Z,83.31
2019-04-07T21:15:18.208Z,84.85
2019-04-07T21:30:46.266Z,84.85
2019-04-07T21:46:27.358Z,86.75
2019-04-07T22:18:21.860Z,89.45
2019-04-07T22:33:57.421Z,89.33
2019-04-07T22:49:32.210Z,90.60
2019-04-07T23:05:05.062Z,92.52
2019-04-07T23:20:39.607Z,93.75
2019-04-07T23:36:13.646Z,94.82
2019-04-07T23:51:47.797Z,95.83
